createdAt,value
2019-02-07T00:00:27.830Z,25.00
2019-02-07T00:02:58.576Z,25.90
2019-02-07T00:05:30.030Z,25.93
2019-02-07T00:08:00.777Z,26.13
2019-02-07T00:10:31.624Z,28.70
2019-02-07T00:13:02.583Z,23.90
2019-02-07T00:15:36.597Z,24.50
2019-02-07T00:18:08.520Z,25.83
2019-02-07T00:20:39.265Z,25.87
2019-02-07T00:23:10.027Z,24.47
2019-02-07T00:25:41.300Z,26.97
2019-02-07T00:28:12.180Z,25.03
2019-02-07T00:30:43.098Z,24.70
2019-02-07T00:33:14.150Z,27.27
2019-02-07T00:35:45.427Z,26.63
2019-02-07T00:38:16.295Z,24.47
2019-02-07T00:40:47.185Z,25.50
2019-02-07T00:43:18.141Z,23.90
2019-02-07T00:45:49.025Z,25.00
2019-02-07T00:48:19.705Z,24.60
2019-02-07T00:50:52.313Z,23.20
2019-02-07T00:53:23.058Z,27.70
2019-02-07T00:55:53.716Z,26.37
2019-02-07T00:58:24.462Z,23.27
2019-02-07T01:00:55.030Z,25.37
2019-02-07T01:03:26.146Z,26.10
2019-02-07T01:05:56.931Z,24.93
2019-02-07T01:08:28.487Z,25.40
2019-02-07T01:10:59.710Z,25.60
2019-02-07T01:13:30.907Z,26.50
2019-02-07T01:16:02.314Z,25.30
2019-02-07T01:18:34.458Z,26.00
2019-02-07T01:21:05.922Z,24.63
2019-02-07T01:23:37.234Z,24.00
2019-02-07T01:26:07.901Z,24.47
2019-02-07T01:28:38.896Z,23.67
2019-02-07T01:31:09.997Z,24.10
2019-02-07T01:33:40.915Z,23.67
2019-02-07T01:36:12.333Z,23.90
2019-02-07T01:38:43.454Z,24.90
2019-02-07T01:41:14.149Z,23.87
2019-02-07T01:43:44.969Z,25.03
2019-02-07T01:46:15.980Z,24.30
2019-02-07T01:48:47.544Z,23.23
2019-02-07T01:51:18.403Z,23.70
2019-02-07T01:53:49.566Z,24.20
2019-02-07T01:56:20.940Z,25.23
2019-02-07T01:58:52.151Z,25.37
2019-02-07T02:01:22.782Z,24.83
2019-02-07T02:03:53.989Z,25.33
2019-02-07T02:06:24.818Z,24.70
2019-02-07T02:08:56.689Z,25.03
2019-02-07T02:11:27.270Z,25.17
2019-02-07T02:13:58.140Z,25.07
2019-02-07T02:16:28.962Z,26.10
2019-02-07T02:19:00.161Z,26.10
2019-02-07T02:21:31.130Z,24.47
2019-02-07T02:24:01.742Z,25.50
2019-02-07T02:26:32.976Z,25.23
2019-02-07T02:29:03.860Z,24.47
2019-02-07T02:31:34.859Z,24.87
2019-02-07T02:34:06.181Z,24.07
2019-02-07T02:36:37.269Z,24.53
2019-02-07T02:39:10.712Z,23.80
2019-02-07T02:41:41.794Z,24.33
2019-02-07T02:44:14.100Z,25.60
2019-02-07T02:46:46.233Z,23.43
2019-02-07T02:49:16.948Z,24.47
2019-02-07T02:51:48.051Z,23.33
2019-02-07T02:54:41.411Z,26.13
2019-02-07T02:57:12.396Z,24.47
2019-02-07T02:59:44.812Z,24.53
2019-02-07T03:02:33.729Z,25.43
2019-02-07T03:05:29.845Z,24.23
2019-02-07T03:08:18.877Z,22.83
2019-02-07T03:11:11.350Z,24.53
2019-02-07T03:14:01.608Z,26.00
2019-02-07T03:17:01.221Z,23.30
2019-02-07T03:19:49.460Z,23.30
2019-02-07T03:22:35.257Z,21.47
2019-02-07T03:25:26.053Z,23.27
2019-02-07T03:28:12.885Z,21.67
2019-02-07T03:31:02.742Z,22.10
2019-02-07T03:33:57.961Z,24.07
2019-02-07T03:36:45.213Z,23.43
2019-02-07T03:39:53.176Z,23.00
2019-02-07T03:42:44.532Z,22.97
2019-02-07T03:45:31.260Z,25.20
2019-02-07T03:48:19.377Z,23.00
2019-02-07T03:51:12.109Z,23.83
2019-02-07T03:54:20.408Z,23.90
2019-02-07T03:57:08.976Z,23.27
2019-02-07T03:59:58.648Z,23.20
2019-02-07T04:02:53.389Z,23.87
2019-02-07T04:05:49.263Z,23.70
2019-02-07T04:08:37.823Z,23.13
2019-02-07T04:11:26.355Z,23.77
2019-02-07T04:14:18.693Z,21.37
2019-02-07T04:17:25.849Z,21.90
2019-02-07T04:20:17.298Z,22.50
2019-02-07T04:23:14.751Z,23.93
2019-02-07T04:26:06.901Z,22.90
2019-02-07T04:28:48.074Z,23.47
2019-02-07T04:31:35.985Z,21.70
2019-02-07T04:34:34.574Z,24.30
2019-02-07T04:37:24.992Z,24.10
2019-02-07T04:40:29.527Z,24.70
2019-02-07T04:43:18.745Z,22.87
2019-02-07T04:46:09.689Z,24.10
2019-02-07T04:49:05.713Z,24.40
2019-02-07T04:51:56.938Z,23.70
2019-02-07T04:54:49.663Z,25.13
2019-02-07T04:57:27.635Z,24.47
2019-02-07T05:00:12.747Z,27.23
2019-02-07T05:03:05.314Z,23.70
2019-02-07T05:06:01.420Z,26.03
2019-02-07T05:08:51.277Z,25.73
2019-02-07T05:11:53.364Z,24.13
2019-02-07T05:14:33.756Z,25.27
2019-02-07T05:17:26.617Z,24.80
2019-02-07T05:20:16.337Z,25.23
2019-02-07T05:23:18.022Z,26.87
2019-02-07T05:26:10.363Z,25.73
2019-02-07T05:28:52.665Z,25.67
2019-02-07T05:31:58.131Z,25.20
2019-02-07T05:34:49.133Z,25.00
2019-02-07T05:37:45.004Z,25.03
2019-02-07T05:40:41.375Z,26.77
2019-02-07T05:43:32.804Z,25.40
2019-02-07T05:46:33.437Z,28.03
2019-02-07T05:49:23.122Z,28.10
2019-02-07T05:52:12.089Z,26.87
2019-02-07T05:55:00.948Z,25.23
2019-02-07T05:57:40.590Z,25.53
2019-02-07T06:00:44.882Z,22.57
2019-02-07T06:03:40.753Z,27.53
2019-02-07T06:06:33.462Z,27.47
2019-02-07T06:09:29.094Z,25.87
2019-02-07T06:12:18.036Z,25.03
2019-02-07T06:15:06.943Z,27.80
2019-02-07T06:17:56.060Z,28.70
2019-02-07T06:20:49.133Z,24.83
2019-02-07T06:23:37.152Z,24.93
2019-02-07T06:26:26.642Z,26.43
2019-02-07T06:29:20.147Z,29.03
2019-02-07T06:31:59.651Z,70.47
2019-02-07T06:34:46.514Z,69.40
2019-02-07T06:37:39.103Z,72.93
2019-02-07T06:40:29.891Z,69.37
2019-02-07T06:43:25.513Z,72.43
2019-02-07T06:46:18.332Z,72.47
2019-02-07T06:49:20.249Z,80.70
2019-02-07T06:52:09.185Z,79.47
2019-02-07T06:54:57.738Z,87.13
2019-02-07T06:57:37.592Z,84.73
2019-02-07T07:00:26.961Z,83.00
2019-02-07T07:03:08.500Z,91.47
2019-02-07T07:06:01.850Z,83.73
2019-02-07T07:08:51.391Z,81.77
2019-02-07T07:11:47.821Z,84.10
2019-02-07T07:14:50.319Z,80.67
2019-02-07T07:17:39.866Z,75.47
2019-02-07T07:20:37.449Z,86.13
2019-02-07T07:23:27.515Z,73.43
2019-02-07T07:26:15.981Z,78.80
2019-02-07T07:29:04.719Z,72.07
2019-02-07T07:31:56.855Z,83.13
2019-02-07T07:35:01.541Z,78.50
2019-02-07T07:38:09.487Z,76.30
2019-02-07T07:40:58.139Z,69.67
2019-02-07T07:43:46.692Z,71.63
2019-02-07T07:46:35.048Z,66.90
2019-02-07T07:49:17.704Z,71.97
2019-02-07T07:52:13.880Z,76.53
2019-02-07T07:55:08.394Z,68.93
2019-02-07T07:57:49.700Z,56.20
2019-02-07T08:00:32.734Z,64.03
2019-02-07T08:03:28.802Z,63.87
2019-02-07T08:06:33.942Z,64.33
2019-02-07T08:09:31.307Z,63.87
2019-02-07T08:12:30.040Z,55.70
2019-02-07T08:15:35.248Z,64.70
2019-02-07T08:18:29.007Z,65.63
2019-02-07T08:21:25.425Z,67.43
2019-02-07T08:24:20.633Z,66.80
2019-02-07T08:27:09.114Z,68.03
2019-02-07T08:29:56.938Z,58.53
2019-02-07T08:32:47.016Z,60.20
2019-02-07T08:35:49.752Z,57.10
2019-02-07T08:38:39.175Z,56.87
2019-02-07T08:41:38.373Z,50.80
2019-02-07T08:44:46.297Z,51.57
2019-02-07T08:47:34.534Z,54.97
2019-02-07T08:50:31.736Z,51.80
2019-02-07T08:53:21.965Z,51.43
2019-02-07T08:56:23.938Z,45.20
2019-02-07T08:59:07.628Z,45.07
2019-02-07T09:02:02.930Z,43.13
2019-02-07T09:05:02.323Z,43.77
2019-02-07T09:07:55.183Z,42.13
2019-02-07T09:10:42.431Z,39.40
2019-02-07T09:13:40.844Z,37.27
2019-02-07T09:16:35.238Z,34.27
2019-02-07T09:19:24.597Z,33.77
2019-02-07T09:22:13.834Z,35.30
2019-02-07T09:25:13.083Z,35.33
2019-02-07T09:28:18.308Z,36.10
2019-02-07T09:31:07.401Z,36.80
2019-02-07T09:33:56.038Z,33.60
2019-02-07T09:36:44.391Z,38.23
2019-02-07T09:39:37.936Z,36.87
2019-02-07T09:42:26.262Z,40.57
2019-02-07T09:45:05.112Z,35.83
2019-02-07T09:47:58.065Z,39.57
2019-02-07T09:50:55.341Z,42.10
2019-02-07T09:53:43.893Z,38.97
2019-02-07T09:56:36.584Z,39.33
2019-02-07T09:59:39.275Z,37.30
2019-02-07T10:02:29.206Z,35.37
2019-02-07T10:05:22.037Z,35.17
2019-02-07T10:08:11.995Z,36.67
2019-02-07T10:10:53.660Z,40.40
2019-02-07T10:13:42.387Z,36.50
2019-02-07T10:16:32.043Z,35.93
2019-02-07T10:19:22.610Z,36.33
2019-02-07T10:22:11.418Z,38.20
2019-02-07T10:25:16.533Z,36.63
2019-02-07T10:28:09.380Z,39.27
2019-02-07T10:30:59.509Z,39.53
2019-02-07T10:33:49.875Z,40.87
2019-02-07T10:36:44.550Z,38.83
2019-02-07T10:39:36.889Z,41.93
2019-02-07T10:42:26.275Z,39.13
2019-02-07T10:45:15.134Z,40.47
2019-02-07T10:48:05.594Z,43.33
2019-02-07T10:51:01.554Z,37.07
2019-02-07T10:54:11.327Z,39.57
2019-02-07T10:57:10.607Z,35.53
2019-02-07T10:59:59.177Z,37.57
2019-02-07T11:03:01.961Z,38.77
2019-02-07T11:05:46.681Z,38.17
2019-02-07T11:08:36.129Z,38.33
2019-02-07T11:11:25.300Z,40.40
2019-02-07T11:14:14.299Z,39.03
2019-02-07T11:16:56.390Z,40.73
2019-02-07T11:19:45.577Z,38.80
2019-02-07T11:22:27.337Z,42.30
2019-02-07T11:25:15.913Z,41.67
2019-02-07T11:28:10.726Z,39.43
2019-02-07T11:30:51.702Z,40.40
2019-02-07T11:33:41.705Z,37.50
2019-02-07T11:36:40.490Z,35.20
2019-02-07T11:39:33.781Z,34.37
2019-02-07T11:42:32.948Z,34.47
2019-02-07T11:45:33.143Z,35.13
2019-02-07T11:48:21.592Z,40.37
2019-02-07T11:51:10.762Z,40.83
2019-02-07T11:54:06.889Z,41.50
2019-02-07T11:56:56.958Z,39.07
2019-02-07T11:59:47.365Z,39.53
2019-02-07T12:02:40.071Z,37.97
2019-02-07T12:05:23.663Z,38.80
2019-02-07T12:08:18.158Z,38.07
2019-02-07T12:11:00.037Z,39.53
2019-02-07T12:13:53.034Z,37.80
2019-02-07T12:16:49.018Z,35.03
2019-02-07T12:19:37.306Z,34.63
2019-02-07T12:22:20.285Z,35.30
2019-02-07T12:25:01.270Z,35.07
2019-02-07T12:27:58.206Z,35.40
2019-02-07T12:30:51.538Z,35.50
2019-02-07T12:33:39.928Z,35.00
2019-02-07T12:36:29.693Z,33.43
2019-02-07T12:39:27.461Z,35.43
2019-02-07T12:42:29.959Z,33.23
2019-02-07T12:45:26.680Z,32.20
2019-02-07T12:48:15.030Z,32.23
2019-02-07T12:51:05.993Z,32.30
2019-02-07T12:54:06.094Z,34.67
2019-02-07T12:56:49.797Z,33.90
2019-02-07T12:59:43.300Z,34.93
2019-02-07T13:02:33.504Z,33.93
2019-02-07T13:05:28.203Z,34.07
2019-02-07T13:08:27.350Z,38.50
2019-02-07T13:11:11.485Z,35.70
2019-02-07T13:14:00.522Z,38.60
2019-02-07T13:16:45.356Z,37.90
2019-02-07T13:19:39.942Z,37.23
2019-02-07T13:22:12.455Z,37.20
2019-02-07T13:24:55.112Z,37.67
2019-02-07T13:27:51.128Z,36.03
2019-02-07T13:30:56.371Z,37.83
2019-02-07T13:33:57.833Z,38.00
2019-02-07T13:36:50.672Z,36.87
2019-02-07T13:39:40.415Z,38.50
2019-02-07T13:42:40.384Z,36.90
2019-02-07T13:45:35.300Z,32.20
2019-02-07T13:48:28.843Z,35.73
2019-02-07T13:51:37.061Z,34.77
2019-02-07T13:54:36.885Z,33.33
2019-02-07T13:57:35.486Z,34.70
2019-02-07T14:00:44.382Z,35.07
2019-02-07T14:03:35.917Z,35.63
2019-02-07T14:06:38.297Z,36.90
2019-02-07T14:09:36.375Z,34.83
2019-02-07T14:12:25.327Z,36.87
2019-02-07T14:15:11.148Z,37.40
2019-02-07T14:17:56.788Z,35.17
2019-02-07T14:20:45.341Z,36.10
2019-02-07T14:23:41.487Z,36.13
2019-02-07T14:26:37.806Z,35.83
2019-02-07T14:29:34.746Z,38.67
2019-02-07T14:32:23.141Z,36.70
2019-02-07T14:35:13.139Z,34.77
2019-02-07T14:38:01.339Z,36.07
2019-02-07T14:40:51.720Z,33.07
2019-02-07T14:43:44.054Z,38.13
2019-02-07T14:46:35.194Z,36.03
2019-02-07T14:49:06.023Z,36.80
2019-02-07T14:51:37.956Z,38.83
2019-02-07T14:54:09.832Z,37.93
2019-02-07T14:56:41.996Z,36.17
2019-02-07T14:59:14.904Z,37.20
2019-02-07T15:01:46.166Z,38.27
2019-02-07T15:04:16.867Z,37.43
2019-02-07T15:06:48.207Z,38.07
2019-02-07T15:09:21.482Z,39.90
2019-02-07T15:11:52.279Z,39.10
2019-02-07T15:14:23.283Z,41.63
2019-02-07T15:16:54.591Z,41.27
2019-02-07T15:19:25.655Z,40.87
2019-02-07T15:21:56.422Z,39.40
2019-02-07T15:24:27.390Z,43.57
2019-02-07T15:27:00.347Z,39.00
2019-02-07T15:29:31.629Z,42.47
2019-02-07T15:32:03.719Z,40.40
2019-02-07T15:34:36.019Z,43.33
2019-02-07T15:37:06.773Z,41.53
2019-02-07T15:39:37.943Z,39.90
2019-02-07T15:42:09.026Z,40.87
2019-02-07T15:44:39.811Z,42.00
2019-02-07T15:47:12.827Z,41.60
2019-02-07T15:49:44.432Z,45.47
2019-02-07T15:52:16.459Z,44.70
2019-02-07T15:54:47.042Z,43.77
2019-02-07T15:57:18.168Z,43.50
2019-02-07T16:00:02.690Z,45.67
2019-02-07T16:02:40.444Z,44.83
2019-02-07T16:05:13.335Z,39.63
2019-02-07T16:07:44.228Z,51.47
2019-02-07T16:10:17.853Z,43.80
2019-02-07T16:12:48.759Z,46.57
2019-02-07T16:15:19.838Z,43.60
2019-02-07T16:17:50.876Z,43.27
2019-02-07T16:20:21.940Z,43.33
2019-02-07T16:22:53.675Z,43.20
2019-02-07T16:25:24.713Z,42.77
2019-02-07T16:27:57.196Z,47.27
2019-02-07T16:30:30.566Z,43.03
2019-02-07T16:33:01.266Z,44.20
2019-02-07T16:35:33.246Z,46.63
2019-02-07T16:38:06.743Z,51.17
2019-02-07T16:40:37.646Z,49.00
2019-02-07T16:43:08.545Z,46.70
2019-02-07T16:45:40.283Z,46.93
2019-02-07T16:48:13.059Z,44.60
2019-02-07T16:50:43.945Z,49.53
2019-02-07T16:53:15.211Z,46.20
2019-02-07T16:55:46.064Z,51.37
2019-02-07T16:58:17.107Z,45.43
2019-02-07T17:00:48.009Z,50.40
2019-02-07T17:03:19.635Z,51.70
2019-02-07T17:05:51.612Z,45.93
2019-02-07T17:08:23.710Z,54.40
2019-02-07T17:11:32.269Z,48.63
2019-02-07T17:14:03.380Z,46.20
2019-02-07T17:16:34.668Z,48.90
2019-02-07T17:19:06.744Z,51.63
2019-02-07T17:21:38.627Z,53.80
2019-02-07T17:24:09.589Z,57.40
2019-02-07T17:26:41.549Z,52.27
2019-02-07T17:29:12.608Z,56.27
2019-02-07T17:31:43.671Z,57.37
2019-02-07T17:34:14.743Z,56.53
2019-02-07T17:36:46.267Z,57.40
2019-02-07T17:39:17.733Z,53.07
2019-02-07T17:41:50.313Z,62.27
2019-02-07T17:44:22.059Z,58.33
2019-02-07T17:46:53.191Z,52.93
2019-02-07T17:49:24.997Z,58.63
2019-02-07T17:51:56.472Z,57.27
2019-02-07T17:54:28.122Z,65.90
2019-02-07T17:56:59.749Z,56.60
2019-02-07T17:59:31.179Z,57.97
2019-02-07T18:02:02.629Z,72.30
2019-02-07T18:04:35.907Z,60.50
2019-02-07T18:07:07.718Z,60.57
2019-02-07T18:09:39.916Z,52.47
2019-02-07T18:12:13.814Z,61.50
2019-02-07T18:14:47.596Z,55.33
2019-02-07T18:17:33.827Z,57.93
2019-02-07T18:20:07.750Z,54.53
2019-02-07T18:22:38.720Z,62.93
2019-02-07T18:25:10.551Z,60.03
2019-02-07T18:27:43.921Z,58.37
2019-02-07T18:30:20.248Z,49.57
2019-02-07T18:32:52.317Z,52.30
2019-02-07T18:35:23.482Z,57.10
2019-02-07T18:37:55.226Z,64.23
2019-02-07T18:40:27.436Z,68.13
2019-02-07T18:42:59.328Z,66.10
2019-02-07T18:45:30.218Z,73.93
2019-02-07T18:48:02.005Z,58.50
2019-02-07T18:50:35.678Z,62.57
2019-02-07T18:53:07.006Z,62.53
2019-02-07T18:55:38.117Z,62.33
2019-02-07T18:58:09.131Z,56.60
2019-02-07T19:00:41.518Z,55.20
2019-02-07T19:03:13.082Z,59.70
2019-02-07T19:05:44.567Z,62.43
2019-02-07T19:08:16.344Z,60.60
2019-02-07T19:10:48.153Z,66.43
2019-02-07T19:13:21.211Z,76.20
2019-02-07T19:15:56.233Z,74.33
2019-02-07T19:18:27.264Z,72.80
2019-02-07T19:20:58.632Z,67.57
2019-02-07T19:23:30.039Z,70.77
2019-02-07T19:26:02.602Z,82.10
2019-02-07T19:28:33.768Z,93.77
2019-02-07T19:31:05.381Z,71.50
2019-02-07T19:33:36.554Z,73.80
2019-02-07T19:36:08.582Z,74.93
2019-02-07T19:38:41.141Z,59.63
2019-02-07T19:41:12.821Z,69.17
2019-02-07T19:43:45.577Z,68.10
2019-02-07T19:46:16.823Z,71.00
2019-02-07T19:48:48.065Z,80.73
2019-02-07T19:51:19.943Z,56.30
2019-02-07T19:53:51.747Z,65.13
2019-02-07T19:56:22.674Z,59.57
2019-02-07T19:58:54.997Z,57.50
2019-02-07T20:01:27.265Z,58.30
2019-02-07T20:03:58.912Z,64.13
2019-02-07T20:06:31.713Z,64.03
2019-02-07T20:09:04.757Z,56.03
2019-02-07T20:11:37.027Z,62.20
2019-02-07T20:14:08.829Z,59.07
2019-02-07T20:16:39.907Z,58.90
2019-02-07T20:19:12.332Z,57.70
2019-02-07T20:21:43.945Z,53.57
2019-02-07T20:24:16.333Z,50.77
2019-02-07T20:26:48.705Z,49.00
2019-02-07T20:29:19.830Z,49.53
2019-02-07T20:31:51.265Z,53.73
2019-02-07T20:34:22.672Z,46.80
2019-02-07T20:36:53.968Z,43.13
2019-02-07T20:39:25.307Z,49.77
2019-02-07T20:41:59.137Z,45.73
2019-02-07T20:44:30.374Z,40.80
2019-02-07T20:47:01.491Z,49.07
2019-02-07T20:49:33.122Z,42.57
2019-02-07T20:52:04.380Z,41.13
2019-02-07T20:54:35.748Z,44.97
2019-02-07T20:57:07.145Z,42.70
2019-02-07T20:59:38.278Z,45.57
2019-02-07T21:02:09.915Z,40.40
2019-02-07T21:04:42.307Z,35.77
2019-02-07T21:07:13.785Z,39.40
2019-02-07T21:09:46.385Z,37.27
2019-02-07T21:12:17.605Z,39.30
2019-02-07T21:14:49.521Z,38.63
2019-02-07T21:17:20.658Z,40.63
2019-02-07T21:19:52.082Z,37.50
2019-02-07T21:22:23.662Z,39.17
2019-02-07T21:24:55.689Z,41.73
2019-02-07T21:27:27.635Z,44.27
2019-02-07T21:29:59.752Z,48.97
2019-02-07T21:32:32.190Z,41.90
2019-02-07T21:35:04.216Z,41.77
2019-02-07T21:37:36.696Z,34.63
2019-02-07T21:40:10.006Z,37.50
2019-02-07T21:42:41.209Z,35.07
2019-02-07T21:45:14.706Z,38.17
2019-02-07T21:47:46.624Z,40.20
2019-02-07T21:50:23.224Z,37.00
2019-02-07T21:52:55.185Z,41.90
2019-02-07T21:55:28.144Z,39.73
2019-02-07T21:57:59.816Z,39.63
2019-02-07T22:00:33.446Z,40.17
2019-02-07T22:03:05.043Z,41.27
2019-02-07T22:05:37.079Z,37.80
2019-02-07T22:08:09.683Z,39.53
2019-02-07T22:10:41.393Z,44.57
2019-02-07T22:13:13.400Z,39.40
2019-02-07T22:15:44.782Z,43.10
2019-02-07T22:18:16.388Z,36.10
2019-02-07T22:20:47.352Z,40.83
2019-02-07T22:23:18.165Z,35.80
2019-02-07T22:25:51.039Z,40.17
2019-02-07T22:28:22.250Z,36.97
2019-02-07T22:30:53.721Z,36.47
2019-02-07T22:33:24.884Z,38.10
2019-02-07T22:35:57.082Z,36.70
2019-02-07T22:38:28.070Z,36.67
2019-02-07T22:40:59.506Z,40.63
2019-02-07T22:43:31.024Z,38.93
2019-02-07T22:46:01.446Z,48.70
2019-02-07T22:48:32.945Z,51.60
2019-02-07T22:51:03.664Z,44.20
2019-02-07T22:53:35.756Z,39.57
2019-02-07T22:56:07.520Z,38.20
2019-02-07T22:58:39.001Z,41.27
2019-02-07T23:01:24.010Z,35.47
2019-02-07T23:04:00.756Z,37.33
2019-02-07T23:06:32.056Z,41.63
2019-02-07T23:09:05.127Z,37.47
2019-02-07T23:11:37.315Z,37.67
2019-02-07T23:14:10.327Z,31.77
2019-02-07T23:16:42.358Z,29.80
2019-02-07T23:19:13.923Z,37.20
2019-02-07T23:21:45.727Z,41.37
2019-02-07T23:24:17.580Z,33.23
2019-02-07T23:26:50.697Z,36.77
2019-02-07T23:29:22.049Z,36.43
2019-02-07T23:31:54.754Z,33.80
2019-02-07T23:34:26.377Z,41.50
2019-02-07T23:36:57.710Z,42.73
2019-02-07T23:39:28.933Z,36.90
2019-02-07T23:41:59.593Z,34.30
2019-02-07T23:44:32.097Z,38.63
2019-02-07T23:47:03.139Z,43.90
2019-02-07T23:49:34.782Z,35.43
2019-02-07T23:52:06.405Z,36.30
2019-02-07T23:54:37.587Z,34.43
2019-02-07T23:57:09.572Z,35.87
2019-02-07T23:59:41.226Z,31.90
